Time;durP1;ratioP1;P1;durP2;ratioP2;P2;SDS_P1;SDS_P2;PMS_P1;PMS_P2;Temp;Humidity;BMP_temperature;BMP_pressure;BME280_temperature;BME280_humidity;BME280_pressure;Samples;Min_cycle;Max_cycle;Signal;HPM_P1;HPM_P2
2023/03/30 00:02:12;;;;;;;10.93;2.47;;;;;;;;;;5083118;28;20058;-76
2023/03/30 00:04:41;;;;;;;17.20;2.47;;;;;;;;;;5082302;28;20058;-82
2023/03/30 00:07:08;;;;;;;9.55;1.95;;;;;;;;;;5101169;28;20074;-79
2023/03/30 00:09:41;;;;;;;5.18;1.73;;;;;;;;;;5082635;28;20020;-75
2023/03/30 00:12:07;;;;;;;10.15;2.58;;;;;;;;;;5101054;28;20120;-75
2023/03/30 00:14:36;;;;;;;9.15;2.53;;;;;;;;;;5099548;28;20043;-75
2023/03/30 00:17:02;;;;;;;20.77;2.50;;;;;;;;;;5100292;28;20070;-75
2023/03/30 00:19:28;;;;;;;12.85;2.33;;;;;;;;;;5100432;28;20036;-80
2023/03/30 00:21:54;;;;;;;6.93;2.80;;;;;;;;;;5100521;28;20246;-79
2023/03/30 00:24:20;;;;;;;11.23;2.50;;;;;;;;;;5100239;28;20020;-79
2023/03/30 00:26:46;;;;;;;16.63;2.75;;;;;;;;;;5100055;28;20394;-75
2023/03/30 00:29:12;;;;;;;10.63;1.90;;;;;;;;;;5099563;28;20356;-75
2023/03/30 00:31:38;;;;;;;10.80;2.38;;;;;;;;;;5100269;28;20039;-76
2023/03/30 00:34:04;;;;;;;12.07;2.65;;;;;;;;;;5100101;28;20281;-79
2023/03/30 00:36:35;;;;;;;7.35;1.58;;;;;;;;;;5082431;28;20365;-75
2023/03/30 00:39:05;;;;;;;14.82;2.80;;;;;;;;;;5099576;28;20024;-75
2023/03/30 00:41:31;;;;;;;;;;;;;;;;;;5100301;28;20032;-79
2023/03/30 00:44:01;;;;;;;7.65;1.67;;;;;;;;;;5099862;28;19943;-75
2023/03/30 00:46:29;;;;;;;10.82;3.05;;;;;;;;;;5094873;28;20035;-75
2023/03/30 00:48:56;;;;;;;12.45;1.98;;;;;;;;;;5081229;28;20020;-79
2023/03/30 00:51:23;;;;;;;3.97;2.03;;;;;;;;;;5099719;28;20032;-77
2023/03/30 00:53:50;;;;;;;4.53;2.08;;;;;;;;;;5100013;28;20059;-75
2023/03/30 00:56:19;;;;;;;2.78;1.65;;;;;;;;;;5120127;28;20106;-76
2023/03/30 00:58:46;;;;;;;7.03;1.83;;;;;;;;;;5118912;28;20028;-74
2023/03/30 01:01:14;;;;;;;21.38;3.05;;;;;;;;;;5120703;28;20039;-78
2023/03/30 01:03:44;;;;;;;4.50;1.93;;;;;;;;;;5106562;28;20016;-77
2023/03/30 01:06:11;;;;;;;15.98;1.90;;;;;;;;;;5100740;28;20024;-77
2023/03/30 01:08:39;;;;;;;11.75;2.05;;;;;;;;;;5100088;28;20028;-74
2023/03/30 01:11:06;;;;;;;10.77;2.35;;;;;;;;;;5081368;28;20020;-74
2023/03/30 01:13:34;;;;;;;9.27;2.47;;;;;;;;;;5099757;28;20063;-73
2023/03/30 01:16:08;;;;;;;7.25;2.10;;;;;;;;;;5098915;28;20054;-74
2023/03/30 01:18:53;;;;;;;6.68;2.42;;;;;;;;;;5098854;28;20047;-74
2023/03/30 01:21:38;;;;;;;16.45;2.28;;;;;;;;;;5080936;28;20028;-74
2023/03/30 01:24:20;;;;;;;14.98;2.33;;;;;;;;;;5098464;28;20058;-78
2023/03/30 01:26:49;;;;;;;7.22;2.92;;;;;;;;;;5099532;28;20020;-77
2023/03/30 01:29:24;;;;;;;13.05;2.17;;;;;;;;;;5080156;28;20073;-74
2023/03/30 01:32:09;;;;;;;13.32;3.80;;;;;;;;;;5098666;28;20031;-72
2023/03/30 01:34:56;;;;;;;7.47;1.60;;;;;;;;;;5080620;28;20028;-73
2023/03/30 01:37:26;;;;;;;12.25;2.15;;;;;;;;;;5080512;28;20035;-73
2023/03/30 01:39:55;;;;;;;12.50;2.38;;;;;;;;;;5079248;28;20339;-73
2023/03/30 01:42:21;;;;;;;;;;;;;;;;;;5080564;28;20319;-74
2023/03/30 01:45:04;;;;;;;19.98;2.92;;;;;;;;;;5098556;28;19950;-78
2023/03/30 01:47:38;;;;;;;11.90;2.88;;;;;;;;;;5080327;28;20031;-75
2023/03/30 01:50:12;;;;;;;14.15;2.88;;;;;;;;;;5097908;28;20208;-73
2023/03/30 01:52:53;;;;;;;7.88;2.53;;;;;;;;;;5098286;28;20101;-75
2023/03/30 01:55:21;;;;;;;8.38;2.15;;;;;;;;;;5110572;28;20368;-74
2023/03/30 01:57:50;;;;;;;9.40;2.47;;;;;;;;;;5118057;28;20232;-73
2023/03/30 02:00:17;;;;;;;4.15;1.30;;;;;;;;;;5118324;28;20031;-74
2023/03/30 02:02:47;;;;;;;6.60;2.63;;;;;;;;;;5100770;28;20200;-75
2023/03/30 02:05:16;;;;;;;10.45;2.22;;;;;;;;;;5099975;28;20011;-77
2023/03/30 02:07:43;;;;;;;10.13;2.55;;;;;;;;;;5100881;28;20031;-77
2023/03/30 02:10:10;;;;;;;8.75;1.80;;;;;;;;;;5118043;28;20315;-74
2023/03/30 02:12:37;;;;;;;9.73;1.67;;;;;;;;;;5100120;28;20027;-76
2023/03/30 02:15:06;;;;;;;12.10;2.28;;;;;;;;;;5117619;28;20035;-73
2023/03/30 02:17:34;;;;;;;13.75;2.25;;;;;;;;;;5118423;28;20111;-78
2023/03/30 02:20:00;;;;;;;4.38;2.05;;;;;;;;;;5100066;28;20062;-79
2023/03/30 02:22:28;;;;;;;13.48;2.40;;;;;;;;;;5117680;28;20197;-73
2023/03/30 02:24:55;;;;;;;11.15;1.92;;;;;;;;;;5099485;28;20244;-74
2023/03/30 02:27:22;;;;;;;4.43;1.48;;;;;;;;;;5117775;28;20027;-75
2023/03/30 02:29:48;;;;;;;11.93;2.80;;;;;;;;;;5117907;28;20151;-79
2023/03/30 02:32:19;;;;;;;9.40;2.28;;;;;;;;;;5117784;28;20028;-76
2023/03/30 02:34:51;;;;;;;11.63;1.80;;;;;;;;;;5118257;28;20031;-76
2023/03/30 02:37:36;;;;;;;10.02;2.47;;;;;;;;;;5118794;28;20342;-78
2023/03/30 02:40:21;;;;;;;4.45;2.03;;;;;;;;;;5100531;28;20303;-79
2023/03/30 02:43:05;;;;;;;9.85;2.45;;;;;;;;;;5118278;28;20039;-78
2023/03/30 02:45:49;;;;;;;8.55;2.25;;;;;;;;;;5118436;28;20307;-80
2023/03/30 02:48:38;;;;;;;10.50;1.92;;;;;;;;;;5117717;28;20314;-78
2023/03/30 02:51:16;;;;;;;12.10;3.13;;;;;;;;;;5116822;28;20055;-78
2023/03/30 02:53:44;;;;;;;10.68;2.42;;;;;;;;;;5118391;28;20269;-80
2023/03/30 02:56:18;;;;;;;4.87;1.53;;;;;;;;;;5099032;28;20032;-82
2023/03/30 02:58:54;;;;;;;26.60;2.70;;;;;;;;;;5097160;28;20270;-79
2023/03/30 03:01:27;;;;;;;11.43;2.75;;;;;;;;;;5100224;28;20091;-80
2023/03/30 03:03:54;;;;;;;9.20;2.10;;;;;;;;;;5099133;28;20079;-79
2023/03/30 03:06:20;;;;;;;7.55;1.83;;;;;;;;;;5097040;28;20030;-79
2023/03/30 03:08:46;;;;;;;14.27;2.25;;;;;;;;;;5079248;28;20304;-82
2023/03/30 03:11:13;;;;;;;10.38;2.83;;;;;;;;;;5079779;28;20024;-86
2023/03/30 03:13:39;;;;;;;20.65;3.75;;;;;;;;;;5079278;28;20119;-80
2023/03/30 03:16:06;;;;;;;17.52;2.50;;;;;;;;;;5078631;28;21638;-76
2023/03/30 03:18:38;;;;;;;8.13;2.55;;;;;;;;;;5079137;28;20038;-80
2023/03/30 03:21:05;;;;;;;12.15;2.17;;;;;;;;;;5108669;28;20034;-80
2023/03/30 03:23:31;;;;;;;3.85;1.75;;;;;;;;;;5106257;28;20246;-74
2023/03/30 03:25:58;;;;;;;13.25;2.60;;;;;;;;;;5088308;28;20023;-80
2023/03/30 03:28:24;;;;;;;6.43;1.92;;;;;;;;;;5086190;28;20350;-74
2023/03/30 03:30:50;;;;;;;6.53;2.67;;;;;;;;;;5099815;28;20024;-80
2023/03/30 03:33:19;;;;;;;5.07;1.48;;;;;;;;;;5106311;28;20019;-75
2023/03/30 03:35:45;;;;;;;14.07;3.35;;;;;;;;;;5106726;28;20020;-78
2023/03/30 03:38:12;;;;;;;11.45;2.60;;;;;;;;;;5103560;28;20339;-78
2023/03/30 03:40:38;;;;;;;8.05;2.60;;;;;;;;;;5114152;28;20046;-84
2023/03/30 03:43:04;;;;;;;9.52;2.70;;;;;;;;;;5098284;28;20390;-77
2023/03/30 03:45:30;;;;;;;9.85;2.13;;;;;;;;;;5116790;28;20032;-81
2023/03/30 03:47:56;;;;;;;6.30;1.63;;;;;;;;;;5095913;28;20028;-80
2023/03/30 03:50:22;;;;;;;5.45;1.90;;;;;;;;;;5102243;28;20101;-74
2023/03/30 03:52:48;;;;;;;15.00;2.05;;;;;;;;;;5098692;28;20049;-80
2023/03/30 03:55:15;;;;;;;8.73;2.00;;;;;;;;;;5098255;28;20016;-79
2023/03/30 03:57:41;;;;;;;7.32;1.63;;;;;;;;;;5078650;28;20028;-80
2023/03/30 04:00:15;;;;;;;9.35;2.47;;;;;;;;;;5096728;28;20035;-80
2023/03/30 04:02:41;;;;;;;5.70;2.15;;;;;;;;;;5097320;28;20215;-76
2023/03/30 04:05:08;;;;;;;9.82;2.65;;;;;;;;;;5115324;28;20052;-80
2023/03/30 04:07:35;;;;;;;3.67;2.25;;;;;;;;;;5100745;28;20024;-77
2023/03/30 04:10:02;;;;;;;11.57;2.67;;;;;;;;;;5110008;28;20019;-79
2023/03/30 04:12:28;;;;;;;12.38;2.80;;;;;;;;;;5082076;28;20034;-76
2023/03/30 04:14:54;;;;;;;6.57;1.67;;;;;;;;;;5099549;28;20031;-78
2023/03/30 04:17:22;;;;;;;10.73;2.25;;;;;;;;;;5104354;28;20064;-80
2023/03/30 04:19:52;;;;;;;7.75;2.20;;;;;;;;;;5120299;28;20012;-79
2023/03/30 04:22:18;;;;;;;8.68;3.08;;;;;;;;;;5106642;28;20292;-82
2023/03/30 04:24:45;;;;;;;12.35;2.45;;;;;;;;;;5099731;28;20043;-79
2023/03/30 04:27:15;;;;;;;6.45;2.00;;;;;;;;;;5119962;28;20464;-84
2023/03/30 04:29:43;;;;;;;6.40;2.63;;;;;;;;;;5103812;28;20145;-83
2023/03/30 04:32:11;;;;;;;9.63;2.28;;;;;;;;;;5120301;28;20023;-77
2023/03/30 04:34:37;;;;;;;8.45;2.90;;;;;;;;;;5121101;28;20321;-82
2023/03/30 04:37:03;;;;;;;4.82;2.08;;;;;;;;;;5120422;28;20029;-76
2023/03/30 04:39:29;;;;;;;7.15;2.20;;;;;;;;;;5101790;28;20027;-83
2023/03/30 04:41:55;;;;;;;10.55;2.25;;;;;;;;;;5101620;28;20038;-83
2023/03/30 04:44:22;;;;;;;7.38;1.80;;;;;;;;;;5120339;28;20082;-77
2023/03/30 04:46:48;;;;;;;9.40;2.58;;;;;;;;;;5120199;28;20031;-82
2023/03/30 04:49:14;;;;;;;10.73;3.20;;;;;;;;;;5119978;28;20039;-77
2023/03/30 04:51:41;;;;;;;4.10;2.13;;;;;;;;;;5101322;28;20035;-82
2023/03/30 04:54:08;;;;;;;12.82;1.75;;;;;;;;;;5116972;28;20019;-76
2023/03/30 04:56:34;;;;;;;7.20;2.08;;;;;;;;;;5099087;28;20032;-80
2023/03/30 04:59:00;;;;;;;12.60;3.60;;;;;;;;;;5099112;28;20103;-76
2023/03/30 05:01:26;;;;;;;5.57;2.72;;;;;;;;;;5098350;28;20146;-80
2023/03/30 05:03:52;;;;;;;4.70;1.67;;;;;;;;;;5098713;28;20032;-75
2023/03/30 05:06:18;;;;;;;14.10;2.53;;;;;;;;;;5079861;28;20035;-74
2023/03/30 05:08:44;;;;;;;10.43;1.50;;;;;;;;;;5098867;28;20016;-81
2023/03/30 05:11:10;;;;;;;3.03;2.08;;;;;;;;;;5098786;28;20035;-81
2023/03/30 05:13:36;;;;;;;7.05;1.35;;;;;;;;;;5096163;28;20028;-73
2023/03/30 05:16:03;;;;;;;5.38;2.00;;;;;;;;;;5079694;28;20661;-80
2023/03/30 05:18:29;;;;;;;10.45;2.75;;;;;;;;;;5096315;28;20020;-76
2023/03/30 05:20:58;;;;;;;12.00;5.53;;;;;;;;;;5097955;28;20130;-80
2023/03/30 05:23:24;;;;;;;10.18;5.03;;;;;;;;;;5105349;28;20079;-77
2023/03/30 05:25:50;;;;;;;14.80;5.30;;;;;;;;;;5107594;28;20034;-74
2023/03/30 05:28:16;;;;;;;12.43;5.15;;;;;;;;;;5085825;28;20100;-75
2023/03/30 05:30:43;;;;;;;11.23;3.67;;;;;;;;;;5067872;28;20123;-82
2023/03/30 05:33:09;;;;;;;20.70;5.70;;;;;;;;;;5085953;28;20020;-81
2023/03/30 05:35:38;;;;;;;16.30;4.20;;;;;;;;;;5062441;28;20028;-74
2023/03/30 05:38:06;;;;;;;18.05;3.45;;;;;;;;;;5096737;28;20095;-75
2023/03/30 05:40:32;;;;;;;11.80;2.88;;;;;;;;;;5085420;28;20554;-77
2023/03/30 05:42:58;;;;;;;7.43;2.28;;;;;;;;;;5105792;28;20331;-86
2023/03/30 05:45:24;;;;;;;8.45;2.97;;;;;;;;;;5107043;28;20743;-74
2023/03/30 05:47:53;;;;;;;7.60;1.80;;;;;;;;;;5109513;28;20030;-83
2023/03/30 05:50:21;;;;;;;12.02;2.13;;;;;;;;;;5113410;28;20024;-79
2023/03/30 05:52:47;;;;;;;12.45;3.17;;;;;;;;;;5116482;28;20434;-86
2023/03/30 05:55:14;;;;;;;8.90;1.65;;;;;;;;;;5100770;28;20020;-88
2023/03/30 05:57:40;;;;;;;10.05;1.85;;;;;;;;;;5109442;28;20065;-76
2023/03/30 06:00:06;;;;;;;10.63;1.75;;;;;;;;;;5118087;28;20028;-77
2023/03/30 06:02:34;;;;;;;5.65;1.85;;;;;;;;;;5123716;28;20023;-80
2023/03/30 06:05:00;;;;;;;9.77;1.60;;;;;;;;;;5114673;28;20016;-86
2023/03/30 06:07:26;;;;;;;4.97;2.15;;;;;;;;;;5118296;28;20020;-84
2023/03/30 06:09:53;;;;;;;11.63;2.50;;;;;;;;;;5115225;28;20023;-77
2023/03/30 06:12:19;;;;;;;7.82;1.92;;;;;;;;;;5099862;28;20181;-83
2023/03/30 06:14:45;;;;;;;9.95;2.10;;;;;;;;;;5111705;28;20015;-85
2023/03/30 06:17:14;;;;;;;5.78;1.63;;;;;;;;;;5113944;28;20629;-80
2023/03/30 06:19:41;;;;;;;3.83;1.90;;;;;;;;;;5108126;28;20023;-75
2023/03/30 06:22:07;;;;;;;4.40;1.98;;;;;;;;;;5088178;28;20373;-74
2023/03/30 06:24:33;;;;;;;3.08;1.38;;;;;;;;;;5106877;28;20035;-74
2023/03/30 06:27:00;;;;;;;6.80;2.47;;;;;;;;;;5089311;28;20028;-74
2023/03/30 06:29:26;;;;;;;5.28;2.10;;;;;;;;;;5110618;28;20023;-83
2023/03/30 06:31:52;;;;;;;11.85;1.80;;;;;;;;;;5116009;28;20028;-80
2023/03/30 06:34:18;;;;;;;5.75;2.05;;;;;;;;;;5110375;28;20035;-76
2023/03/30 06:36:45;;;;;;;9.55;1.40;;;;;;;;;;5086437;28;20047;-75
2023/03/30 06:39:11;;;;;;;5.22;1.52;;;;;;;;;;5087650;28;20028;-79
2023/03/30 06:41:37;;;;;;;9.00;2.72;;;;;;;;;;5125678;27;20034;-73
2023/03/30 06:44:03;;;;;;;3.05;1.33;;;;;;;;;;5126642;27;20019;-72
2023/03/30 06:46:29;;;;;;;6.45;1.65;;;;;;;;;;5127069;27;20106;-73
2023/03/30 06:48:55;;;;;;;6.80;1.70;;;;;;;;;;5127993;27;20107;-73
2023/03/30 06:51:21;;;;;;;4.32;2.40;;;;;;;;;;5101817;28;20027;-76
2023/03/30 06:53:47;;;;;;;5.00;1.35;;;;;;;;;;5105279;28;20030;-75
2023/03/30 06:56:14;;;;;;;4.35;1.60;;;;;;;;;;5102083;28;20483;-73
2023/03/30 06:58:40;;;;;;;4.80;1.63;;;;;;;;;;5105315;28;20020;-73
2023/03/30 07:01:10;;;;;;;12.55;2.13;;;;;;;;;;5106093;28;20046;-75
2023/03/30 07:03:36;;;;;;;5.32;1.58;;;;;;;;;;5101126;28;20078;-76
2023/03/30 07:06:03;;;;;;;1.67;1.50;;;;;;;;;;5087354;28;20020;-74
2023/03/30 07:08:29;;;;;;;6.47;1.52;;;;;;;;;;5069194;28;20039;-74
2023/03/30 07:10:55;;;;;;;5.63;1.92;;;;;;;;;;5068974;28;20111;-75
2023/03/30 07:13:21;;;;;;;5.25;1.88;;;;;;;;;;5074133;28;20024;-80
2023/03/30 07:15:47;;;;;;;7.80;2.33;;;;;;;;;;5102888;28;20020;-85
2023/03/30 07:18:14;;;;;;;4.07;1.67;;;;;;;;;;5082940;28;20042;-84
2023/03/30 07:20:40;;;;;;;7.72;2.08;;;;;;;;;;5118448;28;20115;-84
2023/03/30 07:23:06;;;;;;;6.97;1.58;;;;;;;;;;5105249;28;20027;-80
2023/03/30 07:25:32;;;;;;;8.95;1.10;;;;;;;;;;5122410;28;20262;-80
2023/03/30 07:27:58;;;;;;;2.00;1.67;;;;;;;;;;5112347;28;20122;-76
2023/03/30 07:30:24;;;;;;;5.40;1.73;;;;;;;;;;5096474;28;20038;-76
2023/03/30 07:32:51;;;;;;;2.70;1.40;;;;;;;;;;5094175;28;20035;-74
2023/03/30 07:35:18;;;;;;;5.03;2.05;;;;;;;;;;5103327;28;20043;-75
2023/03/30 07:37:44;;;;;;;6.20;2.25;;;;;;;;;;5112138;28;20107;-76
2023/03/30 07:40:11;;;;;;;9.75;2.30;;;;;;;;;;5112731;28;20167;-76
2023/03/30 07:42:38;;;;;;;3.25;1.65;;;;;;;;;;5091584;28;20034;-74
2023/03/30 07:45:05;;;;;;;11.98;1.67;;;;;;;;;;5108963;28;20382;-74
2023/03/30 07:47:31;;;;;;;7.57;1.58;;;;;;;;;;5108225;28;20038;-76
2023/03/30 07:49:57;;;;;;;12.05;2.17;;;;;;;;;;5107947;28;20028;-75
2023/03/30 07:52:23;;;;;;;14.25;2.85;;;;;;;;;;5111069;28;20027;-73
2023/03/30 07:54:49;;;;;;;4.40;1.83;;;;;;;;;;5101530;28;20057;-73
2023/03/30 07:57:15;;;;;;;3.88;2.05;;;;;;;;;;5069671;28;20365;-76
2023/03/30 07:59:41;;;;;;;7.25;1.35;;;;;;;;;;5070824;28;20374;-76
2023/03/30 08:02:14;;;;;;;4.93;2.10;;;;;;;;;;5070547;28;20036;-74
2023/03/30 08:04:41;;;;;;;6.38;1.67;;;;;;;;;;5087929;28;20024;-78
2023/03/30 08:07:08;;;;;;;4.45;1.20;;;;;;;;;;5087918;28;20028;-75
2023/03/30 08:09:34;;;;;;;6.63;1.70;;;;;;;;;;5088289;28;20404;-74
2023/03/30 08:12:01;;;;;;;3.50;1.65;;;;;;;;;;5089015;28;20385;-74
2023/03/30 08:14:27;;;;;;;5.55;1.30;;;;;;;;;;5072943;28;20024;-81
2023/03/30 08:16:54;;;;;;;4.53;2.10;;;;;;;;;;5093491;28;20040;-78
2023/03/30 08:19:21;;;;;;;11.65;1.70;;;;;;;;;;5090764;28;20055;-74
2023/03/30 08:21:47;;;;;;;6.43;2.42;;;;;;;;;;5089892;28;20040;-76
2023/03/30 08:24:13;;;;;;;8.60;1.85;;;;;;;;;;5074168;28;20358;-74
2023/03/30 08:26:39;;;;;;;11.35;1.80;;;;;;;;;;5091366;28;20020;-74
2023/03/30 08:29:05;;;;;;;2.70;2.17;;;;;;;;;;5078935;28;20024;-77
2023/03/30 08:31:32;;;;;;;4.50;1.85;;;;;;;;;;5115516;28;20030;-86
2023/03/30 08:34:03;;;;;;;7.55;1.90;;;;;;;;;;5125240;28;20248;-80
2023/03/30 08:36:29;;;;;;;5.07;1.52;;;;;;;;;;5113163;28;20020;-73
2023/03/30 08:38:55;;;;;;;3.30;1.60;;;;;;;;;;5108401;28;20070;-72
2023/03/30 08:41:24;;;;;;;8.57;2.78;;;;;;;;;;5107807;28;20104;-74
2023/03/30 08:44:13;;;;;;;4.45;1.65;;;;;;;;;;5108514;28;20020;-75
2023/03/30 08:46:41;;;;;;;10.63;2.45;;;;;;;;;;5108423;28;20031;-73
2023/03/30 08:49:10;;;;;;;5.88;2.95;;;;;;;;;;5108512;28;20109;-74
2023/03/30 08:51:38;;;;;;;3.83;2.08;;;;;;;;;;5108303;28;20464;-73
2023/03/30 08:54:05;;;;;;;5.35;2.15;;;;;;;;;;5106275;28;20054;-74
2023/03/30 08:56:33;;;;;;;7.53;2.03;;;;;;;;;;5087567;28;20373;-71
2023/03/30 08:59:18;;;;;;;9.77;3.42;;;;;;;;;;5087446;28;20047;-72
2023/03/30 09:01:55;;;;;;;3.30;1.65;;;;;;;;;;5087452;28;20093;-73
2023/03/30 09:04:40;;;;;;;5.15;2.38;;;;;;;;;;5088016;28;20387;-75
2023/03/30 09:07:06;;;;;;;5.72;2.17;;;;;;;;;;5087946;28;20054;-73
2023/03/30 09:09:41;;;;;;;6.03;1.40;;;;;;;;;;5087550;28;20404;-74
2023/03/30 09:12:17;;;;;;;3.92;2.45;;;;;;;;;;5088696;28;20056;-73
2023/03/30 09:14:45;;;;;;;1.70;1.42;;;;;;;;;;5087684;28;20035;-72
2023/03/30 09:17:17;;;;;;;2.53;1.93;;;;;;;;;;5087653;28;20047;-72
2023/03/30 09:20:05;;;;;;;3.72;1.58;;;;;;;;;;5087850;28;20032;-78
2023/03/30 09:22:34;;;;;;;4.90;1.88;;;;;;;;;;5087925;28;20496;-78
2023/03/30 09:25:00;;;;;;;5.20;2.60;;;;;;;;;;5069579;28;20036;-78
2023/03/30 09:27:26;;;;;;;3.15;2.20;;;;;;;;;;5069344;28;20024;-74
2023/03/30 09:29:54;;;;;;;7.90;2.83;;;;;;;;;;5086911;28;20054;-73
2023/03/30 09:32:30;;;;;;;5.10;1.63;;;;;;;;;;5069659;28;20035;-73
2023/03/30 09:35:06;;;;;;;2.08;1.88;;;;;;;;;;5069511;28;20015;-73
2023/03/30 09:37:34;;;;;;;2.83;1.33;;;;;;;;;;5087326;28;20546;-78
2023/03/30 09:40:01;;;;;;;6.65;2.05;;;;;;;;;;5069122;28;20031;-74
2023/03/30 09:42:33;;;;;;;2.40;1.00;;;;;;;;;;5069273;28;20476;-75
2023/03/30 09:45:04;;;;;;;4.72;1.38;;;;;;;;;;5068988;28;20024;-73
2023/03/30 09:47:35;;;;;;;1.83;1.35;;;;;;;;;;5068929;28;20113;-74
2023/03/30 09:50:07;;;;;;;6.15;1.42;;;;;;;;;;5087374;28;20113;-74
2023/03/30 09:52:39;;;;;;;4.63;1.92;;;;;;;;;;5068675;28;20024;-75
2023/03/30 09:55:20;;;;;;;10.32;2.80;;;;;;;;;;5075629;28;20024;-73
2023/03/30 09:57:46;;;;;;;6.05;2.55;;;;;;;;;;5087443;28;20059;-82
2023/03/30 10:00:32;;;;;;;15.32;4.78;;;;;;;;;;5073611;28;20089;-81
2023/03/30 10:02:59;;;;;;;6.72;2.33;;;;;;;;;;5089757;28;20035;-81
2023/03/30 10:05:26;;;;;;;6.28;1.80;;;;;;;;;;5072971;28;20031;-83
2023/03/30 10:07:56;;;;;;;9.07;2.17;;;;;;;;;;5081314;28;20059;-83
2023/03/30 10:10:25;;;;;;;3.13;2.28;;;;;;;;;;5075510;28;20020;-73
2023/03/30 10:12:55;;;;;;;4.25;1.50;;;;;;;;;;5074299;28;20526;-81
2023/03/30 10:15:23;;;;;;;10.43;2.67;;;;;;;;;;5090935;28;20511;-82
2023/03/30 10:17:55;;;;;;;4.60;1.70;;;;;;;;;;5095422;28;20052;-84
2023/03/30 10:20:24;;;;;;;7.80;2.13;;;;;;;;;;5083377;28;20028;-82
2023/03/30 10:22:54;;;;;;;3.75;1.58;;;;;;;;;;5082485;28;20101;-84
2023/03/30 10:25:22;;;;;;;4.07;2.17;;;;;;;;;;5071242;28;20347;-82
2023/03/30 10:27:54;;;;;;;3.03;1.15;;;;;;;;;;5069142;28;20103;-74
2023/03/30 10:30:23;;;;;;;8.50;1.58;;;;;;;;;;5086405;28;20131;-74
2023/03/30 10:32:50;;;;;;;10.63;1.52;;;;;;;;;;5087007;28;20434;-74
2023/03/30 10:35:21;;;;;;;4.55;1.73;;;;;;;;;;5068365;28;20027;-74
2023/03/30 10:37:49;;;;;;;6.25;1.20;;;;;;;;;;5087768;28;20020;-75
2023/03/30 10:40:18;;;;;;;5.32;1.50;;;;;;;;;;5108397;28;20031;-75
2023/03/30 10:42:46;;;;;;;5.05;1.80;;;;;;;;;;5090519;28;20088;-73
2023/03/30 10:45:35;;;;;;;4.05;1.45;;;;;;;;;;5110221;28;20030;-85
2023/03/30 10:48:01;;;;;;;;;;;;;;;;;;5097050;28;20047;-83
2023/03/30 10:50:36;;;;;;;5.78;1.90;;;;;;;;;;5121374;28;19888;-81
2023/03/30 10:53:08;;;;;;;6.57;2.03;;;;;;;;;;5123381;28;20024;-82
2023/03/30 10:55:42;;;;;;;3.30;1.27;;;;;;;;;;5101918;28;20024;-73
2023/03/30 10:58:11;;;;;;;3.10;1.70;;;;;;;;;;5074589;28;20028;-84
2023/03/30 11:00:45;;;;;;;2.80;1.25;;;;;;;;;;5069032;28;20028;-77
2023/03/30 11:03:16;;;;;;;3.38;1.10;;;;;;;;;;5089040;28;20036;-82
2023/03/30 11:05:43;;;;;;;4.20;2.10;;;;;;;;;;5073913;28;20126;-85
2023/03/30 11:08:16;;;;;;;6.50;1.90;;;;;;;;;;5092674;28;20136;-75
2023/03/30 11:10:45;;;;;;;6.40;1.90;;;;;;;;;;5071434;28;20047;-75
2023/03/30 11:13:15;;;;;;;3.90;1.88;;;;;;;;;;5090535;28;20032;-75
2023/03/30 11:15:58;;;;;;;6.53;1.75;;;;;;;;;;5072031;28;20016;-73
2023/03/30 11:18:24;;;;;;;4.75;1.73;;;;;;;;;;5072077;28;20052;-76
2023/03/30 11:21:12;;;;;;;3.60;1.45;;;;;;;;;;5090614;28;20040;-73
2023/03/30 11:23:41;;;;;;;4.80;1.90;;;;;;;;;;5072324;28;20031;-73
2023/03/30 11:26:11;;;;;;;10.57;1.35;;;;;;;;;;5072222;28;20020;-74
2023/03/30 11:28:37;;;;;;;;;;;;;;;;;;5073651;28;20034;-73
2023/03/30 11:31:08;;;;;;;6.15;1.88;;;;;;;;;;5071750;28;19908;-73
2023/03/30 11:33:37;;;;;;;6.50;1.65;;;;;;;;;;5089694;28;20032;-81
2023/03/30 11:36:09;;;;;;;1.52;1.40;;;;;;;;;;5071787;28;20052;-75
2023/03/30 11:38:41;;;;;;;3.47;1.10;;;;;;;;;;5071528;28;20077;-81
2023/03/30 11:41:14;;;;;;;4.50;1.80;;;;;;;;;;5090462;28;20405;-86
2023/03/30 11:43:41;;;;;;;3.83;1.02;;;;;;;;;;5090107;28;20028;-77
2023/03/30 11:46:21;;;;;;;3.03;1.40;;;;;;;;;;5089492;28;20352;-77
2023/03/30 11:49:03;;;;;;;2.78;1.42;;;;;;;;;;5071726;28;20168;-74
2023/03/30 11:51:52;;;;;;;8.75;1.55;;;;;;;;;;5072215;28;20168;-81
2023/03/30 11:54:37;;;;;;;3.30;1.48;;;;;;;;;;5094806;28;20063;-78
2023/03/30 11:57:06;;;;;;;2.58;1.58;;;;;;;;;;5110434;28;20495;-73
2023/03/30 11:59:44;;;;;;;3.33;1.33;;;;;;;;;;5109205;28;20031;-84
2023/03/30 12:02:10;;;;;;;2.10;1.40;;;;;;;;;;5090430;28;20506;-77
2023/03/30 12:04:48;;;;;;;3.38;1.80;;;;;;;;;;5090423;28;20015;-73
2023/03/30 12:07:31;;;;;;;3.33;1.15;;;;;;;;;;5090744;28;20028;-73
2023/03/30 12:10:01;;;;;;;3.08;1.15;;;;;;;;;;5109072;28;20024;-73
2023/03/30 12:12:33;;;;;;;1.17;1.08;;;;;;;;;;5109268;28;20050;-72
2023/03/30 12:15:18;;;;;;;7.80;1.73;;;;;;;;;;5091190;28;20024;-78
2023/03/30 12:17:48;;;;;;;7.93;1.77;;;;;;;;;;5109903;28;20052;-81
2023/03/30 12:20:14;;;;;;;3.75;1.00;;;;;;;;;;5091114;28;20114;-74
2023/03/30 12:22:56;;;;;;;5.40;1.20;;;;;;;;;;5110134;28;20070;-82
2023/03/30 12:25:31;;;;;;;3.28;1.70;;;;;;;;;;5096546;28;20023;-82
2023/03/30 12:28:02;;;;;;;3.28;1.05;;;;;;;;;;5115906;28;20023;-77
2023/03/30 12:30:29;;;;;;;8.82;1.15;;;;;;;;;;5109579;28;20487;-77
2023/03/30 12:33:19;;;;;;;0.80;0.80;;;;;;;;;;5092509;28;20019;-74
2023/03/30 12:35:48;;;;;;;4.18;1.35;;;;;;;;;;5097150;28;20036;-78
2023/03/30 12:38:20;;;;;;;1.15;1.05;;;;;;;;;;5111862;28;20023;-80
2023/03/30 12:40:52;;;;;;;5.70;1.20;;;;;;;;;;5095486;28;20088;-76
2023/03/30 12:43:21;;;;;;;2.85;1.20;;;;;;;;;;5098348;28;20501;-76
2023/03/30 12:46:06;;;;;;;3.40;1.02;;;;;;;;;;5113252;28;20434;-74
2023/03/30 12:48:37;;;;;;;6.90;2.03;;;;;;;;;;5116510;28;20031;-74
2023/03/30 12:51:10;;;;;;;2.40;1.02;;;;;;;;;;5111818;28;20020;-78
2023/03/30 12:53:49;;;;;;;5.05;0.90;;;;;;;;;;5073569;28;20023;-74
2023/03/30 12:56:33;;;;;;;6.10;1.17;;;;;;;;;;5072457;28;20496;-82
2023/03/30 12:58:59;;;;;;;3.15;1.10;;;;;;;;;;5071976;28;20031;-81
2023/03/30 13:01:26;;;;;;;3.00;0.98;;;;;;;;;;5072123;28;20043;-78
2023/03/30 13:03:59;;;;;;;6.53;1.02;;;;;;;;;;5090380;28;20496;-81
2023/03/30 13:06:36;;;;;;;3.97;0.98;;;;;;;;;;5071449;28;20573;-80
2023/03/30 13:09:04;;;;;;;2.90;1.00;;;;;;;;;;5071849;28;20021;-79
2023/03/30 13:11:57;;;;;;;1.47;0.77;;;;;;;;;;5090213;28;20103;-75
2023/03/30 13:14:37;;;;;;;4.15;1.08;;;;;;;;;;5050268;28;20029;-75
2023/03/30 13:17:04;;;;;;;4.03;1.10;;;;;;;;;;5089627;28;20052;-78
2023/03/30 13:19:30;;;;;;;2.03;1.05;;;;;;;;;;5089712;28;20020;-76
2023/03/30 13:21:56;;;;;;;6.72;1.63;;;;;;;;;;5089590;28;20090;-77
2023/03/30 13:24:31;;;;;;;5.47;1.27;;;;;;;;;;5071044;28;20028;-74
2023/03/30 13:27:13;;;;;;;0.98;0.88;;;;;;;;;;5071184;28;20171;-77
2023/03/30 13:29:39;;;;;;;4.93;1.00;;;;;;;;;;5090298;28;20024;-75
2023/03/30 13:32:09;;;;;;;4.85;1.10;;;;;;;;;;5091128;28;20035;-78
2023/03/30 13:34:50;;;;;;;5.63;1.67;;;;;;;;;;5071646;28;20028;-80
2023/03/30 13:37:27;;;;;;;1.77;0.93;;;;;;;;;;5091292;28;20024;-80
2023/03/30 13:40:08;;;;;;;2.47;0.85;;;;;;;;;;5090998;28;20028;-80
2023/03/30 13:42:46;;;;;;;1.92;0.80;;;;;;;;;;5090812;28;20552;-79
2023/03/30 13:45:20;;;;;;;5.05;0.77;;;;;;;;;;5090327;28;20087;-80
2023/03/30 13:47:49;;;;;;;5.60;1.08;;;;;;;;;;5090578;28;20459;-78
2023/03/30 13:50:27;;;;;;;3.55;1.58;;;;;;;;;;5090773;28;20023;-80
2023/03/30 13:52:53;;;;;;;3.42;1.70;;;;;;;;;;5090907;28;20111;-80
2023/03/30 13:55:25;;;;;;;1.73;1.00;;;;;;;;;;5090809;28;20049;-78
2023/03/30 13:57:54;;;;;;;0.98;0.80;;;;;;;;;;5090950;28;20024;-78
2023/03/30 14:00:27;;;;;;;1.50;0.93;;;;;;;;;;5071702;28;20057;-77
2023/03/30 14:02:53;;;;;;;6.65;1.23;;;;;;;;;;5090576;28;20070;-78
2023/03/30 14:05:20;;;;;;;3.63;1.08;;;;;;;;;;5090431;28;20032;-79
2023/03/30 14:07:46;;;;;;;3.08;0.85;;;;;;;;;;5072159;28;20027;-76
2023/03/30 14:10:17;;;;;;;5.82;1.20;;;;;;;;;;5090837;28;20023;-79
2023/03/30 14:12:44;;;;;;;5.07;1.20;;;;;;;;;;5072016;28;20020;-78
2023/03/30 14:15:27;;;;;;;4.60;1.08;;;;;;;;;;5090018;28;20066;-73
2023/03/30 14:17:58;;;;;;;2.60;0.82;;;;;;;;;;5089803;28;20036;-73
2023/03/30 14:20:30;;;;;;;3.67;1.88;;;;;;;;;;5071728;28;20426;-77
2023/03/30 14:22:59;;;;;;;4.05;0.93;;;;;;;;;;5071970;28;20105;-76
2023/03/30 14:25:31;;;;;;;6.35;1.33;;;;;;;;;;5071458;28;20040;-77
2023/03/30 14:28:01;;;;;;;7.15;1.27;;;;;;;;;;5071714;28;20032;-78
2023/03/30 14:30:28;;;;;;;1.42;1.13;;;;;;;;;;5090217;28;20038;-79
2023/03/30 14:33:11;;;;;;;3.35;1.10;;;;;;;;;;5090109;28;20081;-79
2023/03/30 14:35:45;;;;;;;1.75;1.55;;;;;;;;;;5089937;28;20077;-79
2023/03/30 14:38:13;;;;;;;2.55;1.15;;;;;;;;;;5089888;28;20086;-77
2023/03/30 14:40:40;;;;;;;2.55;1.73;;;;;;;;;;5090002;28;20052;-78
2023/03/30 14:43:06;;;;;;;1.33;1.23;;;;;;;;;;5089599;28;20032;-77
2023/03/30 14:45:32;;;;;;;2.38;1.58;;;;;;;;;;5089608;28;20028;-75
2023/03/30 14:47:59;;;;;;;1.33;1.10;;;;;;;;;;5089714;28;20032;-77
2023/03/30 14:50:25;;;;;;;3.85;1.58;;;;;;;;;;5089468;28;20035;-76
2023/03/30 14:52:51;;;;;;;3.20;1.23;;;;;;;;;;5089433;28;20027;-77
2023/03/30 14:55:22;;;;;;;2.67;1.52;;;;;;;;;;5089441;28;20024;-74
2023/03/30 14:57:49;;;;;;;1.80;1.20;;;;;;;;;;5089561;28;20028;-78